createdAt,value
2018-12-26T00:02:03.685Z,96891.00
2018-12-26T00:04:53.248Z,96893.00
2018-12-26T00:07:35.822Z,96887.00
2018-12-26T00:13:33.443Z,96906.00
2018-12-26T00:16:22.991Z,96906.00
2018-12-26T00:19:04.883Z,96921.00
2018-12-26T00:21:54.467Z,96908.00
2018-12-26T00:24:38.063Z,96901.00
2018-12-26T00:27:27.635Z,96912.00
2018-12-26T00:30:10.189Z,96895.00
2018-12-26T00:32:59.716Z,96885.00
2018-12-26T00:35:41.814Z,96892.00
2018-12-26T00:38:31.349Z,96886.00
2018-12-26T00:41:13.953Z,96896.00
2018-12-26T00:44:03.548Z,96883.00
2018-12-26T00:46:45.912Z,96884.00
2018-12-26T00:49:35.637Z,96890.00
2018-12-26T00:52:17.743Z,96894.00
2018-12-26T00:55:26.298Z,96883.00
2018-12-26T00:58:08.133Z,96890.00
2018-12-26T01:03:58.725Z,96886.00
2018-12-26T01:06:40.888Z,96884.00
2018-12-26T01:09:30.498Z,96871.00
2018-12-26T01:12:12.223Z,96859.00
2018-12-26T01:15:01.815Z,96876.00
2018-12-26T01:17:51.754Z,96882.00
2018-12-26T01:20:41.318Z,96867.00
2018-12-26T01:23:23.776Z,96870.00
2018-12-26T01:26:19.128Z,96867.00
2018-12-26T01:28:58.850Z,96858.00
2018-12-26T01:31:48.400Z,96858.00
2018-12-26T01:34:30.734Z,96848.00
2018-12-26T01:37:20.432Z,96851.00
2018-12-26T01:40:03.173Z,96849.00
2018-12-26T01:42:52.706Z,96833.00
2018-12-26T01:45:42.244Z,96846.00
2018-12-26T01:48:31.926Z,96843.00
2018-12-26T01:54:11.511Z,96843.00
2018-12-26T01:57:01.067Z,96851.00
2018-12-26T01:59:43.890Z,96846.00
2018-12-26T02:02:33.487Z,96834.00
2018-12-26T02:05:15.715Z,96835.00
2018-12-26T02:08:24.437Z,96827.00
2018-12-26T02:11:06.885Z,96849.00
2018-12-26T02:13:56.507Z,96859.00
2018-12-26T02:16:38.472Z,96849.00
2018-12-26T02:19:20.845Z,96836.00
2018-12-26T02:22:10.554Z,96825.00
2018-12-26T02:24:53.204Z,96844.00
2018-12-26T02:28:01.748Z,96845.00
2018-12-26T02:30:52.372Z,96860.00
2018-12-26T02:33:42.009Z,96871.00
2018-12-26T02:36:24.069Z,96867.00
2018-12-26T02:39:13.630Z,96843.00
2018-12-26T02:42:03.181Z,96858.00
2018-12-26T02:44:52.877Z,96840.00
2018-12-26T02:47:34.887Z,96851.00
2018-12-26T02:50:24.417Z,96839.00
2018-12-26T02:53:14.049Z,96821.00
2018-12-26T02:55:56.415Z,96823.00
2018-12-26T02:58:45.972Z,96824.00
2018-12-26T03:01:28.266Z,96807.00
2018-12-26T03:04:17.866Z,96777.00
2018-12-26T03:07:00.353Z,96792.00
2018-12-26T03:12:46.018Z,96774.00
2018-12-26T03:15:35.734Z,96758.00
2018-12-26T03:18:18.115Z,96759.00
2018-12-26T03:21:07.716Z,96751.00
2018-12-26T03:23:50.646Z,96741.00
2018-12-26T03:26:40.221Z,96735.00
2018-12-26T03:29:22.185Z,96758.00
2018-12-26T03:32:11.761Z,96753.00
2018-12-26T03:34:53.798Z,96744.00
2018-12-26T03:37:43.426Z,96736.00
2018-12-26T03:40:26.353Z,96739.00
2018-12-26T03:46:24.657Z,96742.00
2018-12-26T03:49:33.204Z,96717.00
2018-12-26T03:52:16.284Z,96734.00
2018-12-26T03:55:24.863Z,96712.00
2018-12-26T03:58:07.322Z,96714.00
2018-12-26T04:04:04.877Z,96693.00
2018-12-26T04:10:01.144Z,96682.00
2018-12-26T04:12:50.922Z,96693.00
2018-12-26T04:15:51.432Z,96695.00
2018-12-26T04:18:33.762Z,96714.00
2018-12-26T04:21:23.482Z,96716.00
2018-12-26T04:24:06.218Z,96710.00
2018-12-26T04:26:55.761Z,96706.00
2018-12-26T04:29:45.294Z,96710.00
2018-12-26T04:32:28.029Z,96713.00
2018-12-26T04:35:17.550Z,96715.00
2018-12-26T04:37:59.893Z,96710.00
2018-12-26T04:40:49.430Z,96711.00
2018-12-26T04:43:31.671Z,96707.00
2018-12-26T04:49:29.395Z,96693.00
2018-12-26T04:52:19.089Z,96677.00
2018-12-26T04:55:01.596Z,96674.00
2018-12-26T04:57:51.140Z,96682.00
2018-12-26T05:00:33.165Z,96691.00
2018-12-26T05:03:22.738Z,96697.00
2018-12-26T05:06:05.120Z,96696.00
2018-12-26T05:08:55.439Z,96700.00
2018-12-26T05:11:37.498Z,96684.00
2018-12-26T05:14:27.170Z,96688.00
2018-12-26T05:17:09.396Z,96711.00
2018-12-26T05:19:51.697Z,96725.00
2018-12-26T05:22:41.350Z,96724.00
2018-12-26T05:25:23.432Z,96727.00
2018-12-26T05:28:13.060Z,96717.00
2018-12-26T05:30:55.338Z,96708.00
2018-12-26T05:33:44.890Z,96712.00
2018-12-26T05:36:27.703Z,96703.00
2018-12-26T05:39:36.520Z,96706.00
2018-12-26T05:42:19.022Z,96700.00
2018-12-26T05:45:08.554Z,96704.00
2018-12-26T05:47:50.291Z,96714.00
2018-12-26T05:53:47.576Z,96714.00
2018-12-26T05:59:49.080Z,96733.00
2018-12-26T06:02:38.663Z,96699.00
2018-12-26T06:05:20.635Z,96709.00
2018-12-26T06:08:11.357Z,96714.00
2018-12-26T06:11:00.899Z,96728.00
2018-12-26T06:13:50.443Z,96726.00
2018-12-26T06:16:39.992Z,96744.00
2018-12-26T06:19:21.965Z,96736.00
2018-12-26T06:22:11.481Z,96740.00
2018-12-26T06:24:54.444Z,96733.00
2018-12-26T06:27:51.446Z,96734.00
2018-12-26T06:30:28.175Z,96733.00
2018-12-26T06:33:17.704Z,96721.00
2018-12-26T06:36:00.302Z,96715.00
2018-12-26T06:38:49.864Z,96707.00
2018-12-26T06:41:31.792Z,96715.00
2018-12-26T06:44:21.467Z,96703.00
2018-12-26T06:47:04.186Z,96705.00
2018-12-26T06:52:59.770Z,96718.00
2018-12-26T06:58:57.555Z,96739.00
2018-12-26T07:01:47.228Z,96754.00
2018-12-26T07:04:29.337Z,96755.00
2018-12-26T07:07:18.924Z,96763.00
2018-12-26T07:10:02.134Z,96748.00
2018-12-26T07:12:44.201Z,96746.00
2018-12-26T07:18:39.650Z,96734.00
2018-12-26T07:21:29.197Z,96731.00
2018-12-26T07:24:18.755Z,96761.00
2018-12-26T07:27:01.278Z,96752.00
2018-12-26T07:29:50.906Z,96754.00
2018-12-26T07:32:32.721Z,96745.00
2018-12-26T07:35:22.290Z,96753.00
2018-12-26T07:38:11.856Z,96764.00
2018-12-26T07:41:01.427Z,96764.00
2018-12-26T07:43:50.964Z,96760.00
2018-12-26T07:46:33.595Z,96761.00
2018-12-26T07:49:23.228Z,96763.00
2018-12-26T07:52:04.976Z,96756.00
2018-12-26T07:54:54.529Z,96760.00
2018-12-26T07:57:36.455Z,96750.00
2018-12-26T08:00:25.981Z,96761.00
2018-12-26T08:03:08.674Z,96778.00
2018-12-26T08:05:58.210Z,96772.00
2018-12-26T08:08:42.484Z,96775.00
2018-12-26T08:14:33.325Z,96777.00
2018-12-26T08:17:16.016Z,96755.00
2018-12-26T08:19:57.996Z,96773.00
2018-12-26T08:22:47.535Z,96774.00
2018-12-26T08:25:29.403Z,96764.00
2018-12-26T08:28:26.451Z,96754.00
2018-12-26T08:31:02.613Z,96749.00
2018-12-26T08:33:52.147Z,96759.00
2018-12-26T08:36:34.621Z,96776.00
2018-12-26T08:39:43.063Z,96781.00
2018-12-26T08:42:25.221Z,96785.00
2018-12-26T08:45:33.692Z,96787.00
2018-12-26T08:48:16.347Z,96783.00
2018-12-26T08:51:24.938Z,96779.00
2018-12-26T08:54:07.569Z,96767.00
2018-12-26T08:56:58.091Z,96772.00
2018-12-26T08:59:40.840Z,96764.00
2018-12-26T09:02:30.450Z,96769.00
2018-12-26T09:05:12.381Z,96748.00
2018-12-26T09:08:01.962Z,96757.00
2018-12-26T09:10:44.081Z,96753.00
2018-12-26T09:13:33.699Z,96748.00
2018-12-26T09:16:15.932Z,96756.00
2018-12-26T09:18:58.521Z,96748.00
2018-12-26T09:21:48.258Z,96752.00
2018-12-26T09:24:30.683Z,96748.00
2018-12-26T09:27:20.262Z,96760.00
2018-12-26T09:30:10.827Z,96766.00
2018-12-26T09:32:52.932Z,96773.00
2018-12-26T09:35:42.460Z,96766.00
2018-12-26T09:38:24.548Z,96767.00
2018-12-26T09:41:14.075Z,96768.00
2018-12-26T09:43:55.842Z,96778.00
2018-12-26T09:46:45.396Z,96755.00
2018-12-26T09:49:27.287Z,96755.00
2018-12-26T09:52:16.927Z,96752.00
2018-12-26T09:54:59.133Z,96739.00
2018-12-26T09:57:48.726Z,96743.00
2018-12-26T10:00:38.304Z,96749.00
2018-12-26T10:03:27.829Z,96743.00
2018-12-26T10:06:10.290Z,96746.00
2018-12-26T10:09:18.988Z,96746.00
2018-12-26T10:12:08.524Z,96735.00
2018-12-26T10:14:51.235Z,96727.00
2018-12-26T10:20:56.718Z,96731.00
2018-12-26T10:23:46.265Z,96720.00
2018-12-26T10:26:35.858Z,96724.00
2018-12-26T10:29:17.947Z,96711.00
2018-12-26T10:35:16.043Z,96706.00
2018-12-26T10:38:05.664Z,96708.00
2018-12-26T10:40:48.138Z,96694.00
2018-12-26T10:43:38.351Z,96709.00
2018-12-26T10:46:20.391Z,96725.00
2018-12-26T10:49:10.053Z,96707.00
2018-12-26T10:52:00.439Z,96722.00
2018-12-26T10:54:42.631Z,96695.00
2018-12-26T10:57:32.342Z,96681.00
2018-12-26T11:00:15.190Z,96698.00
2018-12-26T11:03:04.831Z,96687.00
2018-12-26T11:05:47.270Z,96682.00
2018-12-26T11:08:36.861Z,96691.00
2018-12-26T11:11:19.294Z,96689.00
2018-12-26T11:14:08.819Z,96686.00
2018-12-26T11:16:59.247Z,96686.00
2018-12-26T11:19:41.837Z,96694.00
2018-12-26T11:22:31.379Z,96684.00
2018-12-26T11:25:13.948Z,96672.00
2018-12-26T11:28:03.465Z,96675.00
2018-12-26T11:30:46.157Z,96674.00
2018-12-26T11:33:35.682Z,96689.00
2018-12-26T11:39:25.906Z,96682.00
2018-12-26T11:42:08.102Z,96693.00
2018-12-26T11:44:57.730Z,96680.00
2018-12-26T11:47:40.017Z,96687.00
2018-12-26T11:50:29.541Z,96693.00
2018-12-26T11:53:12.420Z,96699.00
2018-12-26T11:59:08.017Z,96690.00
2018-12-26T12:01:57.646Z,96703.00
2018-12-26T12:07:55.207Z,96701.00
2018-12-26T12:10:44.928Z,96707.00
2018-12-26T12:13:27.434Z,96699.00
2018-12-26T12:16:17.140Z,96701.00
2018-12-26T12:18:59.166Z,96692.00
2018-12-26T12:21:48.698Z,96699.00
2018-12-26T12:24:30.768Z,96686.00
2018-12-26T12:27:20.321Z,96687.00
2018-12-26T12:30:03.058Z,96685.00
2018-12-26T12:32:52.600Z,96699.00
2018-12-26T12:35:34.703Z,96696.00
2018-12-26T12:38:24.318Z,96661.00
2018-12-26T12:41:06.584Z,96680.00
2018-12-26T12:44:15.028Z,96672.00
2018-12-26T12:46:57.261Z,96669.00
2018-12-26T12:49:47.107Z,96684.00
2018-12-26T12:52:29.329Z,96675.00
2018-12-26T12:55:18.875Z,96685.00
2018-12-26T12:58:00.933Z,96691.00
2018-12-26T13:00:50.510Z,96686.00
2018-12-26T13:03:32.707Z,96703.00
2018-12-26T13:06:22.358Z,96699.00
2018-12-26T13:09:06.514Z,96699.00
2018-12-26T13:11:56.131Z,96695.00
2018-12-26T13:14:38.779Z,96701.00
2018-12-26T13:17:28.425Z,96697.00
2018-12-26T13:20:10.434Z,96700.00
2018-12-26T13:23:00.086Z,96721.00
2018-12-26T13:25:44.457Z,96712.00
2018-12-26T13:28:34.026Z,96701.00
2018-12-26T13:31:23.711Z,96704.00
2018-12-26T13:34:05.830Z,96713.00
2018-12-26T13:36:55.398Z,96723.00
2018-12-26T13:39:37.300Z,96731.00
2018-12-26T13:42:26.845Z,96736.00
2018-12-26T13:45:16.381Z,96721.00
2018-12-26T13:47:58.224Z,96732.00
2018-12-26T13:50:47.758Z,96712.00
2018-12-26T13:53:30.478Z,96719.00
2018-12-26T13:56:38.921Z,96722.00
2018-12-26T13:59:21.046Z,96722.00
2018-12-26T14:02:10.628Z,96725.00
2018-12-26T14:05:00.270Z,96724.00
2018-12-26T14:07:42.791Z,96721.00
2018-12-26T14:10:33.907Z,96730.00
2018-12-26T14:13:15.971Z,96716.00
2018-12-26T14:16:24.568Z,96728.00
2018-12-26T14:19:07.120Z,96730.00
2018-12-26T14:21:56.795Z,96729.00
2018-12-26T14:24:38.926Z,96732.00
2018-12-26T14:27:29.539Z,96731.00
2018-12-26T14:30:12.192Z,96729.00
2018-12-26T14:33:01.786Z,96722.00
2018-12-26T14:36:10.443Z,96734.00
2018-12-26T14:38:52.275Z,96728.00
2018-12-26T14:41:41.963Z,96729.00
2018-12-26T14:44:24.305Z,96718.00
2018-12-26T14:47:13.954Z,96718.00
2018-12-26T14:49:57.125Z,96720.00
2018-12-26T14:52:46.780Z,96706.00
2018-12-26T14:55:28.646Z,96713.00
2018-12-26T14:58:18.184Z,96702.00
2018-12-26T15:00:59.950Z,96708.00
2018-12-26T15:03:49.571Z,96706.00
2018-12-26T15:06:32.177Z,96704.00
2018-12-26T15:09:21.834Z,96694.00
2018-12-26T15:12:04.101Z,96698.00
2018-12-26T15:14:53.645Z,96688.00
2018-12-26T15:17:35.570Z,96711.00
2018-12-26T15:20:25.089Z,96716.00
2018-12-26T15:23:07.534Z,96706.00
2018-12-26T15:25:57.130Z,96724.00
2018-12-26T15:28:39.926Z,96707.00
2018-12-26T15:31:29.492Z,96720.00
2018-12-26T15:34:11.295Z,96729.00
2018-12-26T15:37:19.817Z,96726.00
2018-12-26T15:40:02.231Z,96715.00
2018-12-26T15:42:51.791Z,96732.00
2018-12-26T15:45:33.855Z,96731.00
2018-12-26T15:48:23.790Z,96721.00
2018-12-26T15:51:05.940Z,96729.00
2018-12-26T15:54:14.468Z,96725.00
2018-12-26T15:56:57.252Z,96729.00
2018-12-26T15:59:46.805Z,96719.00
2018-12-26T16:02:28.846Z,96709.00
2018-12-26T16:05:18.461Z,96727.00
2018-12-26T16:08:01.169Z,96721.00
2018-12-26T16:13:57.316Z,96725.00
2018-12-26T16:16:46.857Z,96724.00
2018-12-26T16:19:29.255Z,96724.00
2018-12-26T16:22:18.912Z,96729.00
2018-12-26T16:25:01.116Z,96722.00
2018-12-26T16:27:51.195Z,96712.00
2018-12-26T16:30:33.168Z,96731.00
2018-12-26T16:33:22.730Z,96742.00
2018-12-26T16:36:05.083Z,96730.00
2018-12-26T16:38:54.613Z,96723.00
2018-12-26T16:41:36.552Z,96721.00
2018-12-26T16:44:26.223Z,96717.00
2018-12-26T16:47:08.259Z,96722.00
2018-12-26T16:49:57.925Z,96706.00
2018-12-26T16:52:39.774Z,96709.00
2018-12-26T16:55:29.492Z,96717.00
2018-12-26T16:58:11.925Z,96728.00
2018-12-26T17:01:01.606Z,96715.00
2018-12-26T17:03:44.332Z,96725.00
2018-12-26T17:09:40.827Z,96710.00
2018-12-26T17:15:31.021Z,96716.00
2018-12-26T17:18:12.885Z,96728.00
2018-12-26T17:21:02.460Z,96723.00
2018-12-26T17:23:44.733Z,96725.00
2018-12-26T17:26:34.274Z,96720.00
2018-12-26T17:29:16.296Z,96723.00
2018-12-26T17:35:12.000Z,96720.00
2018-12-26T17:38:01.556Z,96736.00
2018-12-26T17:40:51.232Z,96729.00
2018-12-26T17:43:33.495Z,96725.00
2018-12-26T17:46:23.046Z,96722.00
2018-12-26T17:52:21.311Z,96739.00
2018-12-26T17:55:49.013Z,96741.00
2018-12-26T17:58:32.237Z,96742.00
2018-12-26T18:01:59.971Z,96733.00
2018-12-26T18:04:42.529Z,96727.00
2018-12-26T18:07:32.257Z,96719.00
2018-12-26T18:10:14.861Z,96730.00
2018-12-26T18:16:12.013Z,96719.00
2018-12-26T18:18:54.068Z,96722.00
2018-12-26T18:21:54.706Z,96722.00
2018-12-26T18:27:44.927Z,96696.00
2018-12-26T18:30:27.751Z,96713.00
2018-12-26T18:33:17.369Z,96710.00
2018-12-26T18:35:59.720Z,96713.00
2018-12-26T18:38:49.284Z,96708.00
2018-12-26T18:41:57.854Z,96729.00
2018-12-26T18:44:40.288Z,96706.00
2018-12-26T18:47:29.947Z,96710.00
2018-12-26T18:50:12.304Z,96721.00
2018-12-26T18:53:01.878Z,96715.00
2018-12-26T18:56:10.427Z,96713.00
2018-12-26T18:58:52.290Z,96727.00
2018-12-26T19:02:00.778Z,96720.00
2018-12-26T19:04:43.492Z,96720.00
2018-12-26T19:07:33.052Z,96727.00
2018-12-26T19:10:14.893Z,96719.00
2018-12-26T19:16:11.892Z,96709.00
2018-12-26T19:18:54.059Z,96706.00
2018-12-26T19:21:43.628Z,96722.00
2018-12-26T19:24:25.925Z,96707.00
2018-12-26T19:27:15.595Z,96718.00
2018-12-26T19:29:59.447Z,96721.00
2018-12-26T19:35:50.079Z,96714.00
2018-12-26T19:38:31.827Z,96721.00
2018-12-26T19:41:21.440Z,96724.00
2018-12-26T19:44:11.066Z,96723.00
2018-12-26T19:46:54.501Z,96704.00
2018-12-26T19:52:38.792Z,96716.00
2018-12-26T19:55:28.399Z,96703.00
2018-12-26T19:58:17.935Z,96710.00
2018-12-26T20:01:07.734Z,96712.00
2018-12-26T20:03:49.563Z,96691.00
2018-12-26T20:06:39.073Z,96702.00
2018-12-26T20:09:20.798Z,96693.00
2018-12-26T20:12:04.846Z,96698.00
2018-12-26T20:18:10.026Z,96684.00
2018-12-26T20:20:59.680Z,96696.00
2018-12-26T20:23:49.274Z,96675.00
2018-12-26T20:26:39.152Z,96698.00
2018-12-26T20:29:28.713Z,96701.00
2018-12-26T20:32:37.258Z,96697.00
2018-12-26T20:35:19.873Z,96704.00
2018-12-26T20:38:28.339Z,96711.00
2018-12-26T20:41:10.361Z,96701.00
2018-12-26T20:43:59.902Z,96695.00
2018-12-26T20:49:50.814Z,96698.00
2018-12-26T20:52:33.564Z,96691.00
2018-12-26T20:55:23.146Z,96690.00
2018-12-26T20:58:12.684Z,96694.00
2018-12-26T21:04:03.132Z,96711.00
2018-12-26T21:06:52.737Z,96704.00
2018-12-26T21:09:42.295Z,96714.00
2018-12-26T21:12:24.371Z,96714.00
2018-12-26T21:15:14.073Z,96708.00
2018-12-26T21:17:57.786Z,96706.00
2018-12-26T21:20:49.473Z,96720.00
2018-12-26T21:23:32.336Z,96706.00
2018-12-26T21:26:21.902Z,96706.00
2018-12-26T21:29:04.462Z,96701.00
2018-12-26T21:31:54.028Z,96711.00
2018-12-26T21:34:36.585Z,96700.00
2018-12-26T21:37:26.203Z,96694.00
2018-12-26T21:40:09.287Z,96692.00
2018-12-26T21:42:58.932Z,96688.00
2018-12-26T21:45:41.242Z,96711.00
2018-12-26T21:48:30.776Z,96697.00
2018-12-26T21:51:12.938Z,96695.00
2018-12-26T21:54:02.474Z,96702.00
2018-12-26T21:56:52.106Z,96701.00
2018-12-26T21:59:41.902Z,96705.00
2018-12-26T22:02:26.338Z,96701.00
2018-12-26T22:05:08.291Z,96686.00
2018-12-26T22:07:57.854Z,96694.00
2018-12-26T22:10:47.398Z,96693.00
2018-12-26T22:13:30.899Z,96696.00
2018-12-26T22:16:20.529Z,96704.00
2018-12-26T22:19:02.375Z,96692.00
2018-12-26T22:21:51.923Z,96691.00
2018-12-26T22:24:42.411Z,96670.00
2018-12-26T22:27:25.863Z,96682.00
2018-12-26T22:30:15.573Z,96672.00
2018-12-26T22:32:58.274Z,96672.00
2018-12-26T22:35:47.836Z,96675.00
2018-12-26T22:38:30.279Z,96677.00
2018-12-26T22:41:19.815Z,96680.00
2018-12-26T22:44:02.181Z,96674.00
2018-12-26T22:46:51.881Z,96646.00
2018-12-26T22:49:34.315Z,96663.00
2018-12-26T22:52:23.861Z,96650.00
2018-12-26T22:55:32.344Z,96659.00
2018-12-26T22:58:14.716Z,96641.00
2018-12-26T23:01:15.441Z,96642.00
2018-12-26T23:04:05.052Z,96666.00
2018-12-26T23:06:54.596Z,96648.00
2018-12-26T23:09:36.897Z,96635.00
2018-12-26T23:15:35.524Z,96635.00
2018-12-26T23:18:25.091Z,96625.00
2018-12-26T23:21:14.641Z,96629.00
2018-12-26T23:23:57.386Z,96629.00
2018-12-26T23:26:47.867Z,96624.00
2018-12-26T23:32:34.332Z,96616.00
2018-12-26T23:35:16.947Z,96604.00
2018-12-26T23:38:06.486Z,96614.00
2018-12-26T23:41:15.051Z,96588.00
2018-12-26T23:43:57.306Z,96606.00
2018-12-26T23:46:46.984Z,96603.00
2018-12-26T23:49:36.535Z,96604.00
2018-12-26T23:52:26.079Z,96603.00
2018-12-26T23:55:08.738Z,96588.00
2018-12-26T23:57:58.295Z,96593.00
